VCP97X EGCC-LPMA
Flight info
| Callsign | VCP97X |
|---|---|
| Flight time | N/A |
| Altitude | 35000 |
| Route | KUXEM P17 BEPHE DCT OSSEP DCT ELNIF DCT ZESPE DCT KLAKI DCT ANNET DCT KORUL DCT DEMOS DCT ASMAR DCT VERAM DCT TELMU DCT PECKY DCT LIDRO |
| Aircraft | B738/M-SDE2E3FGHIRWXY/LB1 |
Departure
| Time | 2026-05-05 06:58 |
|---|---|
| Airport | Manchester Airport (EGCC) |
Arrival
| Time | N/A |
|---|---|
| Airport | Cristiano Ronaldo International Airport (LPMA) |
| Time | Latitude | Longitude | Altitude | Speed | Heading |
|---|---|---|---|---|---|
| 2026-05-05 06:31 | 53.36039 | -2.26884 | 253 ft | 0 kts | 315° |
| 2026-05-05 06:48 | 53.36038 | -2.26883 | 253 ft | 1 kts | 315° |
| 2026-05-05 06:48 | 53.36029 | -2.26867 | 253 ft | 1 kts | 315° |
| 2026-05-05 06:48 | 53.36021 | -2.26854 | 254 ft | 2 kts | 306° |
| 2026-05-05 06:49 | 53.36015 | -2.26832 | 254 ft | 2 kts | 287° |
| 2026-05-05 06:49 | 53.36012 | -2.26807 | 254 ft | 2 kts | 269° |
| 2026-05-05 06:49 | 53.36014 | -2.26782 | 255 ft | 2 kts | 252° |
| 2026-05-05 06:49 | 53.36021 | -2.26760 | 255 ft | 1 kts | 235° |
| 2026-05-05 06:50 | 53.36024 | -2.26751 | 255 ft | 1 kts | 228° |
| 2026-05-05 06:50 | 53.36026 | -2.26748 | 255 ft | 0 kts | 230° |
| 2026-05-05 06:52 | 53.36025 | -2.26750 | 255 ft | 1 kts | 230° |
| 2026-05-05 06:52 | 53.36004 | -2.26792 | 254 ft | 6 kts | 230° |
| 2026-05-05 06:53 | 53.35967 | -2.26848 | 254 ft | 7 kts | 202° |
| 2026-05-05 06:53 | 53.35930 | -2.26820 | 254 ft | 6 kts | 115° |
| 2026-05-05 06:53 | 53.35896 | -2.26715 | 255 ft | 15 kts | 141° |
| 2026-05-05 06:53 | 53.35767 | -2.26669 | 257 ft | 20 kts | 172° |
| 2026-05-05 06:54 | 53.35634 | -2.26632 | 257 ft | 16 kts | 171° |
| 2026-05-05 06:54 | 53.35539 | -2.26691 | 257 ft | 14 kts | 230° |
| 2026-05-05 06:54 | 53.35473 | -2.26826 | 255 ft | 15 kts | 231° |
| 2026-05-05 06:54 | 53.35405 | -2.26967 | 253 ft | 15 kts | 231° |
| 2026-05-05 06:55 | 53.35331 | -2.27118 | 249 ft | 17 kts | 231° |
| 2026-05-05 06:55 | 53.35269 | -2.27215 | 247 ft | 11 kts | 191° |
| 2026-05-05 06:55 | 53.35192 | -2.27238 | 246 ft | 8 kts | 190° |
| 2026-05-05 06:55 | 53.35177 | -2.27242 | 246 ft | 1 kts | 190° |
| 2026-05-05 06:56 | 53.35173 | -2.27243 | 246 ft | 0 kts | 193° |
| 2026-05-05 06:56 | 53.35134 | -2.27258 | 245 ft | 11 kts | 193° |
| 2026-05-05 06:56 | 53.35049 | -2.27289 | 244 ft | 12 kts | 192° |
| 2026-05-05 06:57 | 53.34962 | -2.27411 | 241 ft | 32 kts | 230° |
| 2026-05-05 06:57 | 53.34683 | -2.27988 | 228 ft | 94 kts | 231° |
| 2026-05-05 06:57 | 53.34151 | -2.29092 | 205 ft | 146 kts | 231° |
| 2026-05-05 06:57 | 53.33428 | -2.30592 | 335 ft | 173 kts | 232° |
| 2026-05-05 06:58 | 53.32684 | -2.32144 | 899 ft | 175 kts | 234° |
| 2026-05-05 06:58 | 53.31918 | -2.33773 | 1387 ft | 181 kts | 240° |
| 2026-05-05 06:58 | 53.31528 | -2.35722 | 1770 ft | 183 kts | 278° |
| 2026-05-05 06:58 | 53.31818 | -2.37816 | 2071 ft | 193 kts | 292° |
| 2026-05-05 06:59 | 53.32224 | -2.40030 | 2414 ft | 208 kts | 289° |
| 2026-05-05 06:59 | 53.32563 | -2.42485 | 2824 ft | 222 kts | 280° |
| 2026-05-05 06:59 | 53.32464 | -2.45065 | 3409 ft | 230 kts | 259° |
| 2026-05-05 06:59 | 53.31963 | -2.47596 | 4035 ft | 233 kts | 254° |
| 2026-05-05 07:00 | 53.31412 | -2.50193 | 4463 ft | 244 kts | 255° |
| 2026-05-05 07:00 | 53.30870 | -2.52962 | 4822 ft | 257 kts | 256° |
| 2026-05-05 07:00 | 53.30333 | -2.55857 | 5331 ft | 264 kts | 256° |
| 2026-05-05 07:00 | 53.29794 | -2.58797 | 5949 ft | 267 kts | 255° |
| 2026-05-05 07:01 | 53.29129 | -2.61713 | 6573 ft | 270 kts | 247° |
| 2026-05-05 07:01 | 53.28199 | -2.64437 | 7152 ft | 275 kts | 232° |
| 2026-05-05 07:01 | 53.26759 | -2.66522 | 7746 ft | 279 kts | 216° |
| 2026-05-05 07:01 | 53.25135 | -2.68314 | 8309 ft | 283 kts | 214° |
| 2026-05-05 07:02 | 53.23479 | -2.70147 | 8899 ft | 285 kts | 216° |
| 2026-05-05 07:02 | 53.21841 | -2.72005 | 9482 ft | 287 kts | 216° |
| 2026-05-05 07:02 | 53.20210 | -2.73881 | 10028 ft | 290 kts | 216° |
| 2026-05-05 07:02 | 53.18523 | -2.75829 | 10462 ft | 298 kts | 217° |
| 2026-05-05 07:03 | 53.16785 | -2.77838 | 10713 ft | 313 kts | 217° |
| 2026-05-05 07:03 | 53.14973 | -2.79928 | 10940 ft | 328 kts | 217° |
| 2026-05-05 07:03 | 53.13040 | -2.82155 | 11166 ft | 343 kts | 217° |
| 2026-05-05 07:03 | 53.11039 | -2.84445 | 11407 ft | 356 kts | 215° |
| 2026-05-05 07:04 | 53.08879 | -2.86475 | 11897 ft | 363 kts | 205° |
| 2026-05-05 07:04 | 53.06428 | -2.87566 | 12448 ft | 371 kts | 187° |
| 2026-05-05 07:04 | 53.03849 | -2.87417 | 13046 ft | 376 kts | 174° |
| 2026-05-05 07:04 | 53.01265 | -2.86749 | 13623 ft | 379 kts | 172° |
| 2026-05-05 07:05 | 52.98659 | -2.85992 | 14236 ft | 382 kts | 171° |
| 2026-05-05 07:05 | 52.96074 | -2.85231 | 14871 ft | 384 kts | 172° |
| 2026-05-05 07:05 | 52.93443 | -2.84472 | 15499 ft | 386 kts | 172° |
| 2026-05-05 07:05 | 52.90797 | -2.83728 | 16143 ft | 387 kts | 172° |
| 2026-05-05 07:06 | 52.88124 | -2.82992 | 16780 ft | 389 kts | 172° |
| 2026-05-05 07:06 | 52.85476 | -2.82272 | 17341 ft | 392 kts | 173° |
| 2026-05-05 07:06 | 52.82786 | -2.81548 | 17951 ft | 393 kts | 173° |
| 2026-05-05 07:06 | 52.80095 | -2.80825 | 18576 ft | 394 kts | 172° |
| 2026-05-05 07:07 | 52.77395 | -2.80103 | 19097 ft | 397 kts | 172° |
| 2026-05-05 07:07 | 52.74676 | -2.79376 | 19601 ft | 400 kts | 172° |
| 2026-05-05 07:07 | 52.71896 | -2.78634 | 20111 ft | 404 kts | 172° |
| 2026-05-05 07:07 | 52.69125 | -2.77893 | 20629 ft | 406 kts | 172° |
| 2026-05-05 07:08 | 52.66346 | -2.77151 | 21145 ft | 408 kts | 172° |
| 2026-05-05 07:08 | 52.63550 | -2.76442 | 21630 ft | 411 kts | 173° |
| 2026-05-05 07:08 | 52.60707 | -2.75978 | 22130 ft | 412 kts | 178° |
| 2026-05-05 07:08 | 52.57851 | -2.75899 | 22573 ft | 415 kts | 181° |
| 2026-05-05 07:09 | 52.54948 | -2.76057 | 23047 ft | 417 kts | 184° |
| 2026-05-05 07:09 | 52.52070 | -2.76320 | 23461 ft | 420 kts | 184° |
| 2026-05-05 07:09 | 52.49140 | -2.76626 | 23935 ft | 422 kts | 184° |
| 2026-05-05 07:09 | 52.46199 | -2.76935 | 24310 ft | 426 kts | 184° |
| 2026-05-05 07:10 | 52.43255 | -2.77237 | 24740 ft | 428 kts | 184° |
| 2026-05-05 07:10 | 52.40301 | -2.77528 | 25150 ft | 431 kts | 184° |
| 2026-05-05 07:10 | 52.37292 | -2.77814 | 25532 ft | 434 kts | 183° |
| 2026-05-05 07:10 | 52.34296 | -2.78089 | 25924 ft | 436 kts | 183° |
| 2026-05-05 07:11 | 52.31240 | -2.78363 | 26272 ft | 440 kts | 183° |
| 2026-05-05 07:11 | 52.28191 | -2.78631 | 26715 ft | 441 kts | 183° |
| 2026-05-05 07:11 | 52.25142 | -2.78896 | 27048 ft | 445 kts | 182° |
| 2026-05-05 07:11 | 52.22024 | -2.79164 | 27462 ft | 446 kts | 182° |
| 2026-05-05 07:12 | 52.18930 | -2.79429 | 27757 ft | 450 kts | 182° |
| 2026-05-05 07:12 | 52.15805 | -2.79696 | 28160 ft | 451 kts | 182° |
| 2026-05-05 07:12 | 52.12667 | -2.79964 | 28469 ft | 454 kts | 182° |
| 2026-05-05 07:12 | 52.09491 | -2.80235 | 28828 ft | 456 kts | 182° |
| 2026-05-05 07:13 | 52.06343 | -2.80503 | 29313 ft | 454 kts | 182° |
| 2026-05-05 07:13 | 52.03173 | -2.80773 | 29906 ft | 450 kts | 182° |
| 2026-05-05 07:13 | 52.00038 | -2.81039 | 30348 ft | 449 kts | 182° |
| 2026-05-05 07:13 | 51.96954 | -2.81302 | 30760 ft | 448 kts | 182° |
| 2026-05-05 07:14 | 51.93796 | -2.81569 | 31161 ft | 447 kts | 182° |
| 2026-05-05 07:14 | 51.90679 | -2.81832 | 31434 ft | 448 kts | 181° |
| 2026-05-05 07:14 | 51.87554 | -2.82096 | 31704 ft | 449 kts | 181° |
| 2026-05-05 07:14 | 51.84452 | -2.82378 | 31993 ft | 450 kts | 182° |
| 2026-05-05 07:15 | 51.81363 | -2.82843 | 32304 ft | 449 kts | 185° |
| 2026-05-05 07:15 | 51.78260 | -2.83475 | 32590 ft | 449 kts | 186° |
| 2026-05-05 07:15 | 51.75166 | -2.84180 | 32888 ft | 449 kts | 187° |
| 2026-05-05 07:15 | 51.72081 | -2.84904 | 33159 ft | 448 kts | 187° |
| 2026-05-05 07:16 | 51.68992 | -2.85627 | 33353 ft | 450 kts | 186° |
| 2026-05-05 07:16 | 51.65926 | -2.86333 | 33679 ft | 448 kts | 186° |
| 2026-05-05 07:16 | 51.62831 | -2.87034 | 33890 ft | 449 kts | 186° |
| 2026-05-05 07:16 | 51.59747 | -2.87721 | 34145 ft | 448 kts | 186° |
| 2026-05-05 07:17 | 51.56656 | -2.88399 | 34338 ft | 449 kts | 186° |
| 2026-05-05 07:17 | 51.53566 | -2.89069 | 34509 ft | 449 kts | 186° |
| 2026-05-05 07:17 | 51.50475 | -2.89733 | 34714 ft | 449 kts | 186° |
| 2026-05-05 07:17 | 51.47378 | -2.90394 | 34899 ft | 448 kts | 186° |
| 2026-05-05 07:18 | 51.44304 | -2.91048 | 34996 ft | 444 kts | 186° |
| 2026-05-05 07:18 | 51.38245 | -2.92331 | 35010 ft | 434 kts | 186° |
| 2026-05-05 07:19 | 51.32272 | -2.93588 | 34999 ft | 434 kts | 186° |
| 2026-05-05 07:19 | 51.26318 | -2.94836 | 35005 ft | 434 kts | 185° |
| 2026-05-05 07:20 | 51.20338 | -2.96085 | 34996 ft | 433 kts | 186° |
| 2026-05-05 07:20 | 51.14375 | -2.97330 | 34985 ft | 431 kts | 185° |
| 2026-05-05 07:21 | 51.08450 | -2.98564 | 34985 ft | 429 kts | 185° |
| 2026-05-05 07:21 | 51.02554 | -2.99790 | 34986 ft | 428 kts | 186° |
| 2026-05-05 07:22 | 50.96666 | -3.01009 | 34987 ft | 428 kts | 186° |
| 2026-05-05 07:22 | 50.90771 | -3.02225 | 34985 ft | 428 kts | 186° |
| 2026-05-05 07:23 | 50.84844 | -3.03446 | 34983 ft | 428 kts | 186° |
| 2026-05-05 07:23 | 50.78984 | -3.04651 | 34978 ft | 425 kts | 186° |
| 2026-05-05 07:24 | 50.73154 | -3.05846 | 34978 ft | 423 kts | 186° |
| 2026-05-05 07:24 | 50.67339 | -3.07035 | 34974 ft | 422 kts | 186° |
| 2026-05-05 07:25 | 50.61499 | -3.08226 | 34969 ft | 423 kts | 186° |
| 2026-05-05 07:25 | 50.55672 | -3.09412 | 34971 ft | 424 kts | 186° |
| 2026-05-05 07:26 | 50.49843 | -3.10594 | 34973 ft | 425 kts | 186° |
| 2026-05-05 07:26 | 50.43967 | -3.11783 | 34966 ft | 426 kts | 186° |
| 2026-05-05 07:27 | 50.38172 | -3.13596 | 34964 ft | 428 kts | 198° |
| 2026-05-05 07:27 | 50.35456 | -3.15525 | 34967 ft | 429 kts | 209° |
| 2026-05-05 07:27 | 50.32978 | -3.18044 | 34961 ft | 429 kts | 214° |
| 2026-05-05 07:28 | 50.28233 | -3.23701 | 34957 ft | 429 kts | 217° |
| 2026-05-05 07:28 | 50.23568 | -3.29559 | 34958 ft | 432 kts | 217° |
| 2026-05-05 07:29 | 50.18866 | -3.35425 | 34962 ft | 434 kts | 217° |
| 2026-05-05 07:29 | 50.14154 | -3.41228 | 34958 ft | 434 kts | 217° |
| 2026-05-05 07:30 | 50.09384 | -3.47050 | 34963 ft | 440 kts | 217° |
| 2026-05-05 07:30 | 50.02066 | -3.55922 | 34957 ft | 441 kts | 217° |
| 2026-05-05 07:31 | 49.97301 | -3.61678 | 34958 ft | 432 kts | 217° |
| 2026-05-05 07:31 | 49.92541 | -3.67410 | 34956 ft | 430 kts | 216° |
| 2026-05-05 07:32 | 49.87836 | -3.73060 | 34957 ft | 432 kts | 216° |
| 2026-05-05 07:32 | 49.83074 | -3.78761 | 34963 ft | 434 kts | 216° |
| 2026-05-05 07:33 | 49.78285 | -3.84481 | 34955 ft | 434 kts | 216° |
| 2026-05-05 07:33 | 49.73504 | -3.90178 | 34961 ft | 440 kts | 216° |
| 2026-05-05 07:34 | 49.68593 | -3.95996 | 34955 ft | 450 kts | 216° |
| 2026-05-05 07:34 | 49.63356 | -4.01347 | 34956 ft | 453 kts | 207° |
| 2026-05-05 07:35 | 49.57691 | -4.05443 | 34963 ft | 448 kts | 201° |
| 2026-05-05 07:35 | 49.51942 | -4.09154 | 34966 ft | 451 kts | 201° |
| 2026-05-05 07:36 | 49.46133 | -4.12901 | 34961 ft | 455 kts | 201° |
| 2026-05-05 07:36 | 49.40326 | -4.16687 | 34953 ft | 458 kts | 201° |
| 2026-05-05 07:37 | 49.34463 | -4.20539 | 34954 ft | 460 kts | 202° |
| 2026-05-05 07:37 | 49.28563 | -4.24424 | 34954 ft | 461 kts | 202° |
| 2026-05-05 07:38 | 49.22688 | -4.28289 | 34953 ft | 462 kts | 202° |
| 2026-05-05 07:38 | 49.16809 | -4.32150 | 34955 ft | 460 kts | 202° |
| 2026-05-05 07:39 | 49.10961 | -4.35980 | 34956 ft | 458 kts | 201° |
| 2026-05-05 07:39 | 49.05080 | -4.39822 | 34954 ft | 457 kts | 201° |
| 2026-05-05 07:40 | 48.99261 | -4.43614 | 34949 ft | 456 kts | 201° |
| 2026-05-05 07:40 | 48.93451 | -4.47389 | 34950 ft | 455 kts | 202° |
| 2026-05-05 07:41 | 48.87639 | -4.51157 | 34951 ft | 453 kts | 202° |
| 2026-05-05 07:41 | 48.81854 | -4.54900 | 34951 ft | 452 kts | 201° |
| 2026-05-05 07:42 | 48.76075 | -4.58629 | 34949 ft | 451 kts | 201° |
| 2026-05-05 07:42 | 48.70307 | -4.62337 | 34949 ft | 450 kts | 201° |
| 2026-05-05 07:43 | 48.64576 | -4.66012 | 34959 ft | 450 kts | 201° |
| 2026-05-05 07:43 | 48.58801 | -4.69708 | 34948 ft | 449 kts | 201° |
| 2026-05-05 07:44 | 48.53104 | -4.73346 | 34956 ft | 448 kts | 201° |
| 2026-05-05 07:44 | 48.47358 | -4.77005 | 34950 ft | 447 kts | 200° |
| 2026-05-05 07:45 | 48.41665 | -4.80621 | 34950 ft | 446 kts | 201° |
| 2026-05-05 07:45 | 48.35945 | -4.84246 | 34953 ft | 446 kts | 200° |
| 2026-05-05 07:46 | 48.30266 | -4.87838 | 34953 ft | 439 kts | 200° |
| 2026-05-05 07:46 | 48.24674 | -4.91368 | 34949 ft | 431 kts | 200° |
| 2026-05-05 07:47 | 48.19208 | -4.94809 | 34963 ft | 427 kts | 200° |
| 2026-05-05 07:47 | 48.13710 | -4.98258 | 34964 ft | 429 kts | 200° |
| 2026-05-05 07:48 | 48.08192 | -5.01711 | 34966 ft | 432 kts | 200° |
| 2026-05-05 07:48 | 48.02636 | -5.05181 | 34963 ft | 433 kts | 200° |
| 2026-05-05 07:49 | 47.97104 | -5.08630 | 34953 ft | 433 kts | 200° |
| 2026-05-05 07:49 | 47.91554 | -5.12082 | 34939 ft | 432 kts | 200° |
| 2026-05-05 07:50 | 47.86021 | -5.15516 | 34944 ft | 430 kts | 201° |
| 2026-05-05 07:50 | 47.80513 | -5.18925 | 34945 ft | 428 kts | 201° |
| 2026-05-05 07:51 | 47.75007 | -5.22325 | 34948 ft | 429 kts | 201° |
| 2026-05-05 07:51 | 47.69532 | -5.25699 | 34955 ft | 429 kts | 201° |
| 2026-05-05 07:52 | 47.64020 | -5.29087 | 34968 ft | 429 kts | 201° |
| 2026-05-05 07:52 | 47.58498 | -5.32475 | 34959 ft | 428 kts | 201° |
| 2026-05-05 07:53 | 47.53023 | -5.35825 | 34965 ft | 428 kts | 201° |
| 2026-05-05 07:53 | 47.47518 | -5.39185 | 34966 ft | 426 kts | 201° |
| 2026-05-05 07:54 | 47.42089 | -5.42492 | 34953 ft | 421 kts | 201° |
| 2026-05-05 07:54 | 47.36659 | -5.45792 | 34969 ft | 427 kts | 201° |
| 2026-05-05 07:55 | 47.31081 | -5.49170 | 34969 ft | 438 kts | 201° |
| 2026-05-05 07:55 | 47.25392 | -5.52610 | 34969 ft | 448 kts | 201° |
| 2026-05-05 07:56 | 47.19563 | -5.56128 | 34971 ft | 458 kts | 201° |
| 2026-05-05 07:56 | 47.13702 | -5.59661 | 34963 ft | 450 kts | 201° |
| 2026-05-05 07:57 | 47.08020 | -5.63079 | 34983 ft | 442 kts | 201° |
| 2026-05-05 07:57 | 47.02238 | -5.66543 | 34971 ft | 452 kts | 200° |
| 2026-05-05 07:58 | 46.96361 | -5.70054 | 34976 ft | 461 kts | 200° |
| 2026-05-05 07:58 | 46.90418 | -5.73602 | 34966 ft | 463 kts | 201° |
| 2026-05-05 07:59 | 46.84450 | -5.77154 | 34978 ft | 463 kts | 201° |
| 2026-05-05 07:59 | 46.78493 | -5.80690 | 34976 ft | 464 kts | 201° |
| 2026-05-05 08:00 | 46.72516 | -5.84228 | 34973 ft | 464 kts | 201° |
| 2026-05-05 08:00 | 46.66547 | -5.87754 | 34983 ft | 464 kts | 201° |
| 2026-05-05 08:01 | 46.60577 | -5.91273 | 34976 ft | 464 kts | 201° |
| 2026-05-05 08:01 | 46.54569 | -5.94806 | 34974 ft | 465 kts | 201° |
| 2026-05-05 08:02 | 46.48600 | -5.98306 | 34976 ft | 465 kts | 201° |
| 2026-05-05 08:02 | 46.42584 | -6.01825 | 34958 ft | 465 kts | 201° |
| 2026-05-05 08:03 | 46.36624 | -6.05303 | 34964 ft | 465 kts | 201° |
| 2026-05-05 08:03 | 46.30589 | -6.08818 | 34968 ft | 466 kts | 201° |
| 2026-05-05 08:04 | 46.24594 | -6.12299 | 34975 ft | 466 kts | 201° |
| 2026-05-05 08:04 | 46.18545 | -6.15805 | 34965 ft | 466 kts | 202° |
| 2026-05-05 08:05 | 46.12538 | -6.19277 | 34954 ft | 466 kts | 202° |
| 2026-05-05 08:05 | 46.06549 | -6.22732 | 34975 ft | 466 kts | 202° |
| 2026-05-05 08:06 | 46.00522 | -6.26199 | 34969 ft | 467 kts | 202° |
| 2026-05-05 08:06 | 45.94484 | -6.29666 | 34964 ft | 467 kts | 202° |
| 2026-05-05 08:07 | 45.88459 | -6.33117 | 34971 ft | 467 kts | 202° |
| 2026-05-05 08:07 | 45.82383 | -6.36590 | 34980 ft | 467 kts | 202° |
| 2026-05-05 08:08 | 45.76362 | -6.40022 | 34968 ft | 468 kts | 202° |
| 2026-05-05 08:08 | 45.70309 | -6.43464 | 34972 ft | 468 kts | 202° |
| 2026-05-05 08:09 | 45.64267 | -6.46892 | 34969 ft | 468 kts | 202° |
| 2026-05-05 08:09 | 45.58194 | -6.50331 | 34976 ft | 468 kts | 202° |
| 2026-05-05 08:10 | 45.52151 | -6.53743 | 34966 ft | 468 kts | 202° |
| 2026-05-05 08:10 | 45.46116 | -6.57144 | 34967 ft | 468 kts | 202° |
| 2026-05-05 08:11 | 45.40051 | -6.60553 | 34969 ft | 466 kts | 202° |
| 2026-05-05 08:11 | 45.34036 | -6.63927 | 34967 ft | 465 kts | 202° |
| 2026-05-05 08:12 | 45.28030 | -6.67287 | 34970 ft | 464 kts | 202° |
| 2026-05-05 08:12 | 45.22064 | -6.70618 | 34963 ft | 463 kts | 202° |
| 2026-05-05 08:13 | 45.16086 | -6.73947 | 34967 ft | 462 kts | 202° |
| 2026-05-05 08:13 | 45.10074 | -6.77289 | 34966 ft | 461 kts | 202° |
| 2026-05-05 08:14 | 45.04130 | -6.80587 | 34956 ft | 460 kts | 202° |
| 2026-05-05 08:14 | 44.98202 | -6.83868 | 34963 ft | 460 kts | 202° |
| 2026-05-05 08:15 | 44.92244 | -6.87157 | 34968 ft | 459 kts | 202° |
| 2026-05-05 08:15 | 44.86243 | -6.90477 | 34974 ft | 458 kts | 204° |
| 2026-05-05 08:16 | 44.80565 | -6.94427 | 34976 ft | 457 kts | 211° |
| 2026-05-05 08:16 | 44.75133 | -6.99091 | 34977 ft | 456 kts | 214° |
| 2026-05-05 08:17 | 44.69816 | -7.03895 | 34988 ft | 455 kts | 214° |
| 2026-05-05 08:17 | 44.64474 | -7.08714 | 34988 ft | 455 kts | 214° |
| 2026-05-05 08:18 | 44.59120 | -7.13492 | 34994 ft | 456 kts | 214° |
| 2026-05-05 08:18 | 44.53758 | -7.18236 | 35002 ft | 456 kts | 214° |
| 2026-05-05 08:19 | 44.48423 | -7.22932 | 34998 ft | 457 kts | 214° |
| 2026-05-05 08:19 | 44.43032 | -7.27657 | 34999 ft | 458 kts | 214° |
| 2026-05-05 08:20 | 44.37621 | -7.32383 | 34999 ft | 459 kts | 214° |
| 2026-05-05 08:20 | 44.32206 | -7.37100 | 34998 ft | 460 kts | 214° |
| 2026-05-05 08:21 | 44.26748 | -7.41845 | 35003 ft | 460 kts | 214° |
| 2026-05-05 08:21 | 44.21325 | -7.46550 | 35004 ft | 461 kts | 214° |
| 2026-05-05 08:22 | 44.15883 | -7.51261 | 35003 ft | 461 kts | 215° |
| 2026-05-05 08:22 | 44.10446 | -7.55957 | 35003 ft | 462 kts | 215° |
| 2026-05-05 08:23 | 44.04962 | -7.60685 | 35007 ft | 462 kts | 215° |
| 2026-05-05 08:23 | 43.99521 | -7.65366 | 35007 ft | 463 kts | 214° |
| 2026-05-05 08:24 | 43.94044 | -7.70067 | 35011 ft | 464 kts | 214° |
| 2026-05-05 08:24 | 43.88528 | -7.74790 | 35017 ft | 464 kts | 214° |
| 2026-05-05 08:25 | 43.83039 | -7.79482 | 35016 ft | 465 kts | 214° |
| 2026-05-05 08:25 | 43.77513 | -7.84192 | 35017 ft | 465 kts | 214° |
| 2026-05-05 08:26 | 43.71999 | -7.88883 | 35016 ft | 466 kts | 214° |
| 2026-05-05 08:26 | 43.66492 | -7.93558 | 35019 ft | 466 kts | 215° |
| 2026-05-05 08:27 | 43.60963 | -7.98243 | 35024 ft | 467 kts | 215° |
| 2026-05-05 08:27 | 43.55393 | -8.02950 | 35018 ft | 468 kts | 215° |
| 2026-05-05 08:28 | 43.49844 | -8.07630 | 35015 ft | 468 kts | 215° |
| 2026-05-05 08:28 | 43.44266 | -8.12323 | 35033 ft | 468 kts | 215° |
| 2026-05-05 08:29 | 43.38739 | -8.16963 | 35033 ft | 468 kts | 215° |
| 2026-05-05 08:30 | 43.30401 | -8.23944 | 35035 ft | 468 kts | 215° |
| 2026-05-05 08:30 | 43.24808 | -8.28614 | 35044 ft | 467 kts | 215° |
| 2026-05-05 08:31 | 43.19245 | -8.33250 | 35040 ft | 467 kts | 215° |
| 2026-05-05 08:31 | 43.13679 | -8.37877 | 35043 ft | 467 kts | 215° |
| 2026-05-05 08:32 | 43.08123 | -8.42485 | 35048 ft | 467 kts | 215° |
| 2026-05-05 08:32 | 43.02499 | -8.47141 | 35049 ft | 467 kts | 215° |
| 2026-05-05 08:33 | 42.96921 | -8.51748 | 35055 ft | 467 kts | 216° |
| 2026-05-05 08:33 | 42.91383 | -8.56313 | 35051 ft | 467 kts | 216° |
| 2026-05-05 08:34 | 42.85794 | -8.60910 | 35053 ft | 467 kts | 216° |
| 2026-05-05 08:34 | 42.80258 | -8.65455 | 35047 ft | 467 kts | 215° |
| 2026-05-05 08:35 | 42.74683 | -8.70022 | 35043 ft | 467 kts | 215° |
| 2026-05-05 08:35 | 42.69156 | -8.74537 | 35041 ft | 462 kts | 215° |
| 2026-05-05 08:36 | 42.63641 | -8.79035 | 35047 ft | 462 kts | 215° |
| 2026-05-05 08:36 | 42.58165 | -8.83492 | 35054 ft | 463 kts | 215° |
| 2026-05-05 08:37 | 42.52639 | -8.87980 | 35061 ft | 463 kts | 215° |
| 2026-05-05 08:37 | 42.47111 | -8.92460 | 35066 ft | 464 kts | 215° |
| 2026-05-05 08:38 | 42.41588 | -8.96927 | 35062 ft | 464 kts | 216° |
| 2026-05-05 08:38 | 42.36036 | -9.01409 | 35064 ft | 465 kts | 215° |
| 2026-05-05 08:39 | 42.30466 | -9.05895 | 35068 ft | 466 kts | 216° |
| 2026-05-05 08:39 | 42.24918 | -9.10355 | 35069 ft | 466 kts | 215° |
| 2026-05-05 08:40 | 42.19362 | -9.14810 | 35069 ft | 467 kts | 216° |
| 2026-05-05 08:40 | 42.13759 | -9.19294 | 35072 ft | 467 kts | 216° |
| 2026-05-05 08:41 | 42.08169 | -9.23758 | 35070 ft | 468 kts | 216° |
| 2026-05-05 08:41 | 42.02563 | -9.28226 | 35075 ft | 467 kts | 216° |
| 2026-05-05 08:42 | 41.96982 | -9.32662 | 35082 ft | 465 kts | 216° |
| 2026-05-05 08:42 | 41.91431 | -9.37087 | 35077 ft | 462 kts | 217° |
| 2026-05-05 08:43 | 41.86100 | -9.41782 | 35066 ft | 458 kts | 220° |
| 2026-05-05 08:43 | 41.80880 | -9.46650 | 35074 ft | 455 kts | 221° |
| 2026-05-05 08:44 | 41.75667 | -9.51509 | 35079 ft | 454 kts | 221° |
| 2026-05-05 08:44 | 41.70491 | -9.56282 | 35073 ft | 453 kts | 221° |
| 2026-05-05 08:45 | 41.65306 | -9.61021 | 35069 ft | 451 kts | 221° |
| 2026-05-05 08:45 | 41.60135 | -9.65719 | 35076 ft | 450 kts | 220° |
| 2026-05-05 08:46 | 41.54949 | -9.70415 | 35084 ft | 450 kts | 221° |
| 2026-05-05 08:46 | 41.49790 | -9.75076 | 35086 ft | 449 kts | 221° |
| 2026-05-05 08:47 | 41.44611 | -9.79745 | 35097 ft | 449 kts | 221° |
| 2026-05-05 08:47 | 41.39411 | -9.84424 | 35071 ft | 450 kts | 221° |
| 2026-05-05 08:48 | 41.34245 | -9.89066 | 35082 ft | 451 kts | 221° |
| 2026-05-05 08:48 | 41.29061 | -9.93711 | 35086 ft | 451 kts | 221° |
| 2026-05-05 08:49 | 41.23842 | -9.98380 | 35071 ft | 451 kts | 221° |
| 2026-05-05 08:49 | 41.18631 | -10.03031 | 35080 ft | 452 kts | 221° |
| 2026-05-05 08:50 | 41.13449 | -10.07646 | 35082 ft | 451 kts | 221° |
| 2026-05-05 08:50 | 41.08215 | -10.12298 | 35087 ft | 451 kts | 221° |
| 2026-05-05 08:51 | 41.03028 | -10.16900 | 35085 ft | 451 kts | 221° |
| 2026-05-05 08:51 | 40.97793 | -10.21539 | 35076 ft | 451 kts | 221° |
| 2026-05-05 08:52 | 40.92617 | -10.26113 | 35081 ft | 450 kts | 221° |
| 2026-05-05 08:52 | 40.87390 | -10.30725 | 35089 ft | 449 kts | 221° |
| 2026-05-05 08:53 | 40.82213 | -10.35283 | 35086 ft | 448 kts | 221° |
| 2026-05-05 08:53 | 40.77048 | -10.39822 | 35081 ft | 446 kts | 221° |
| 2026-05-05 08:54 | 40.71880 | -10.44355 | 35095 ft | 446 kts | 221° |
| 2026-05-05 08:54 | 40.66756 | -10.48842 | 35093 ft | 445 kts | 221° |
| 2026-05-05 08:55 | 40.61598 | -10.53350 | 35090 ft | 444 kts | 220° |
| 2026-05-05 08:55 | 40.56456 | -10.57835 | 35091 ft | 443 kts | 220° |
| 2026-05-05 08:56 | 40.51351 | -10.62280 | 35096 ft | 442 kts | 220° |
| 2026-05-05 08:56 | 40.46210 | -10.66749 | 35100 ft | 441 kts | 219° |
| 2026-05-05 08:57 | 40.41119 | -10.71164 | 35098 ft | 441 kts | 219° |
| 2026-05-05 08:57 | 40.35997 | -10.75600 | 35101 ft | 441 kts | 219° |
| 2026-05-05 08:58 | 40.30892 | -10.80012 | 35104 ft | 441 kts | 219° |
| 2026-05-05 08:58 | 40.25767 | -10.84432 | 35107 ft | 441 kts | 219° |
| 2026-05-05 08:59 | 40.20648 | -10.88838 | 35106 ft | 441 kts | 219° |
| 2026-05-05 08:59 | 40.15548 | -10.93221 | 35107 ft | 440 kts | 219° |
| 2026-05-05 09:00 | 40.10425 | -10.97617 | 35109 ft | 440 kts | 219° |
| 2026-05-05 09:00 | 40.05317 | -11.01990 | 35111 ft | 439 kts | 219° |
| 2026-05-05 09:01 | 40.00196 | -11.06367 | 35115 ft | 439 kts | 219° |
| 2026-05-05 09:01 | 39.95101 | -11.10714 | 35112 ft | 438 kts | 219° |
| 2026-05-05 09:02 | 39.90018 | -11.15043 | 35108 ft | 437 kts | 219° |
| 2026-05-05 09:02 | 39.84929 | -11.19368 | 35125 ft | 436 kts | 218° |
| 2026-05-05 09:03 | 39.79871 | -11.23659 | 35129 ft | 435 kts | 219° |
| 2026-05-05 09:03 | 39.74823 | -11.27934 | 35138 ft | 434 kts | 219° |
| 2026-05-05 09:04 | 39.69763 | -11.32212 | 35132 ft | 433 kts | 218° |
| 2026-05-05 09:04 | 39.64736 | -11.36455 | 35135 ft | 432 kts | 219° |
| 2026-05-05 09:05 | 39.59708 | -11.40691 | 35141 ft | 431 kts | 218° |
| 2026-05-05 09:05 | 39.54691 | -11.44911 | 35145 ft | 430 kts | 218° |
| 2026-05-05 09:06 | 39.49682 | -11.49116 | 35139 ft | 429 kts | 218° |
| 2026-05-05 09:06 | 39.44697 | -11.53295 | 35142 ft | 428 kts | 218° |
| 2026-05-05 09:07 | 39.39703 | -11.57474 | 35140 ft | 428 kts | 218° |
| 2026-05-05 09:07 | 39.34700 | -11.61653 | 35137 ft | 427 kts | 218° |
| 2026-05-05 09:08 | 39.29732 | -11.65794 | 35138 ft | 426 kts | 218° |
| 2026-05-05 09:08 | 39.24761 | -11.69930 | 35143 ft | 426 kts | 218° |
| 2026-05-05 09:09 | 39.19757 | -11.74089 | 35142 ft | 426 kts | 217° |
| 2026-05-05 09:09 | 39.14787 | -11.78213 | 35144 ft | 426 kts | 217° |
| 2026-05-05 09:10 | 39.09810 | -11.82334 | 35145 ft | 426 kts | 217° |
| 2026-05-05 09:10 | 39.04803 | -11.86472 | 35148 ft | 426 kts | 217° |
| 2026-05-05 09:11 | 38.99850 | -11.90561 | 35153 ft | 426 kts | 217° |
| 2026-05-05 09:11 | 38.94838 | -11.94689 | 35147 ft | 426 kts | 217° |
| 2026-05-05 09:12 | 38.89867 | -11.98776 | 35150 ft | 425 kts | 217° |
| 2026-05-05 09:12 | 38.84902 | -12.02852 | 35151 ft | 425 kts | 217° |
| 2026-05-05 09:13 | 38.79919 | -12.06937 | 35152 ft | 424 kts | 217° |
| 2026-05-05 09:13 | 38.74943 | -12.11008 | 35158 ft | 423 kts | 217° |
| 2026-05-05 09:14 | 38.69961 | -12.15080 | 35158 ft | 423 kts | 217° |
| 2026-05-05 09:14 | 38.65004 | -12.19122 | 35159 ft | 422 kts | 217° |
| 2026-05-05 09:15 | 38.60054 | -12.23152 | 35156 ft | 422 kts | 217° |
| 2026-05-05 09:15 | 38.55072 | -12.27201 | 35159 ft | 422 kts | 217° |
| 2026-05-05 09:16 | 38.50138 | -12.31204 | 35156 ft | 421 kts | 217° |
| 2026-05-05 09:16 | 38.45207 | -12.35198 | 35152 ft | 420 kts | 217° |
| 2026-05-05 09:17 | 38.40276 | -12.39186 | 35156 ft | 419 kts | 217° |
| 2026-05-05 09:17 | 38.35376 | -12.43143 | 35153 ft | 419 kts | 217° |
| 2026-05-05 09:18 | 38.30430 | -12.47130 | 35159 ft | 418 kts | 217° |
| 2026-05-05 09:18 | 38.25519 | -12.51084 | 35165 ft | 417 kts | 217° |
| 2026-05-05 09:19 | 38.20647 | -12.54998 | 35163 ft | 416 kts | 217° |
| 2026-05-05 09:19 | 38.15740 | -12.58936 | 35165 ft | 415 kts | 218° |
| 2026-05-05 09:20 | 38.10865 | -12.62840 | 35167 ft | 414 kts | 217° |
| 2026-05-05 09:20 | 38.05976 | -12.66750 | 35163 ft | 414 kts | 217° |
| 2026-05-05 09:21 | 38.01120 | -12.70628 | 35165 ft | 414 kts | 217° |
| 2026-05-05 09:21 | 37.96257 | -12.74504 | 35168 ft | 414 kts | 217° |
| 2026-05-05 09:22 | 37.91375 | -12.78389 | 35167 ft | 414 kts | 217° |
| 2026-05-05 09:22 | 37.86502 | -12.82261 | 35167 ft | 414 kts | 217° |
| 2026-05-05 09:23 | 37.81652 | -12.86109 | 35169 ft | 414 kts | 217° |
| 2026-05-05 09:23 | 37.76760 | -12.89984 | 35169 ft | 414 kts | 217° |
| 2026-05-05 09:24 | 37.71849 | -12.93868 | 35166 ft | 414 kts | 217° |
| 2026-05-05 09:24 | 37.66984 | -12.97709 | 35168 ft | 414 kts | 217° |
| 2026-05-05 09:25 | 37.62106 | -13.01554 | 35164 ft | 414 kts | 217° |
| 2026-05-05 09:25 | 37.57197 | -13.05417 | 35162 ft | 414 kts | 217° |
| 2026-05-05 09:26 | 37.52342 | -13.09233 | 35164 ft | 414 kts | 217° |
| 2026-05-05 09:26 | 37.47445 | -13.13076 | 35164 ft | 414 kts | 216° |
| 2026-05-05 09:27 | 37.42555 | -13.16906 | 35163 ft | 413 kts | 217° |
| 2026-05-05 09:27 | 37.37662 | -13.20732 | 35164 ft | 413 kts | 217° |
| 2026-05-05 09:28 | 37.32763 | -13.24559 | 35164 ft | 413 kts | 216° |
| 2026-05-05 09:28 | 37.27850 | -13.28391 | 35161 ft | 413 kts | 216° |
| 2026-05-05 09:29 | 37.22974 | -13.32185 | 35157 ft | 413 kts | 216° |
| 2026-05-05 09:29 | 37.18077 | -13.35992 | 35162 ft | 413 kts | 216° |
| 2026-05-05 09:30 | 37.13188 | -13.39785 | 35167 ft | 413 kts | 216° |
| 2026-05-05 09:30 | 37.08329 | -13.43550 | 35170 ft | 413 kts | 216° |
| 2026-05-05 09:31 | 37.03447 | -13.47328 | 35171 ft | 412 kts | 216° |
| 2026-05-05 09:31 | 36.98573 | -13.51093 | 35174 ft | 412 kts | 216° |
| 2026-05-05 09:32 | 36.93675 | -13.54872 | 35174 ft | 412 kts | 216° |
| 2026-05-05 09:32 | 36.88772 | -13.58649 | 35171 ft | 412 kts | 216° |
| 2026-05-05 09:33 | 36.83886 | -13.62406 | 35175 ft | 413 kts | 216° |
| 2026-05-05 09:33 | 36.78980 | -13.66174 | 35175 ft | 414 kts | 215° |
| 2026-05-05 09:34 | 36.74070 | -13.69940 | 35167 ft | 415 kts | 215° |
| 2026-05-05 09:34 | 36.69160 | -13.73699 | 35166 ft | 416 kts | 215° |
| 2026-05-05 09:35 | 36.64218 | -13.77478 | 35167 ft | 417 kts | 215° |
| 2026-05-05 09:35 | 36.56797 | -13.83141 | 35170 ft | 418 kts | 215° |
| 2026-05-05 09:36 | 36.51821 | -13.86931 | 35172 ft | 419 kts | 215° |
| 2026-05-05 09:36 | 36.46825 | -13.90728 | 35175 ft | 420 kts | 214° |
| 2026-05-05 09:37 | 36.41837 | -13.94513 | 35175 ft | 421 kts | 214° |
| 2026-05-05 09:37 | 36.36854 | -13.98291 | 35173 ft | 422 kts | 214° |
| 2026-05-05 09:38 | 36.31827 | -14.02097 | 35176 ft | 423 kts | 214° |
| 2026-05-05 09:38 | 36.26775 | -14.05915 | 35172 ft | 423 kts | 214° |
| 2026-05-05 09:39 | 36.21766 | -14.09696 | 35176 ft | 424 kts | 214° |
| 2026-05-05 09:39 | 36.16739 | -14.13483 | 35177 ft | 424 kts | 214° |
| 2026-05-05 09:40 | 36.11698 | -14.17275 | 35175 ft | 425 kts | 214° |
| 2026-05-05 09:40 | 36.06623 | -14.21087 | 35170 ft | 426 kts | 214° |
| 2026-05-05 09:41 | 36.01546 | -14.24892 | 35169 ft | 426 kts | 214° |
| 2026-05-05 09:41 | 35.96477 | -14.28688 | 35174 ft | 427 kts | 214° |
| 2026-05-05 09:42 | 35.91407 | -14.32478 | 35172 ft | 427 kts | 214° |
| 2026-05-05 09:42 | 35.86330 | -14.36268 | 35168 ft | 428 kts | 214° |
| 2026-05-05 09:43 | 35.81216 | -14.40081 | 35168 ft | 428 kts | 214° |
| 2026-05-05 09:43 | 35.76120 | -14.43873 | 35165 ft | 428 kts | 214° |
| 2026-05-05 09:44 | 35.71011 | -14.47668 | 35172 ft | 429 kts | 214° |
| 2026-05-05 09:44 | 35.65919 | -14.51444 | 35164 ft | 429 kts | 214° |
| 2026-05-05 09:45 | 35.60817 | -14.55224 | 35163 ft | 428 kts | 214° |
| 2026-05-05 09:45 | 35.55714 | -14.58997 | 35162 ft | 428 kts | 214° |
| 2026-05-05 09:46 | 35.50585 | -14.62783 | 35164 ft | 428 kts | 214° |
| 2026-05-05 09:46 | 35.45491 | -14.66540 | 35159 ft | 428 kts | 213° |
| 2026-05-05 09:47 | 35.40383 | -14.70299 | 35159 ft | 428 kts | 213° |
| 2026-05-05 09:47 | 35.35296 | -14.74036 | 35161 ft | 428 kts | 213° |
| 2026-05-05 09:48 | 35.30158 | -14.77806 | 35158 ft | 428 kts | 213° |
| 2026-05-05 09:48 | 35.25059 | -14.81543 | 35158 ft | 428 kts | 213° |
| 2026-05-05 09:49 | 35.19928 | -14.85297 | 35157 ft | 428 kts | 213° |
| 2026-05-05 09:49 | 35.14821 | -14.89033 | 35156 ft | 428 kts | 213° |
| 2026-05-05 09:50 | 35.09712 | -14.92763 | 35153 ft | 428 kts | 213° |
| 2026-05-05 09:50 | 35.04589 | -14.96499 | 35155 ft | 428 kts | 213° |
| 2026-05-05 09:51 | 34.99492 | -15.00209 | 35152 ft | 428 kts | 213° |
| 2026-05-05 09:51 | 34.94364 | -15.03935 | 35151 ft | 428 kts | 213° |
| 2026-05-05 09:52 | 34.89252 | -15.07644 | 35151 ft | 428 kts | 213° |
| 2026-05-05 09:52 | 34.84110 | -15.11368 | 35149 ft | 428 kts | 213° |
| 2026-05-05 09:53 | 34.79004 | -15.15060 | 35147 ft | 428 kts | 213° |
| 2026-05-05 09:53 | 34.73860 | -15.18773 | 35147 ft | 429 kts | 213° |
| 2026-05-05 09:54 | 34.68750 | -15.22457 | 35145 ft | 429 kts | 213° |
| 2026-05-05 09:54 | 34.63596 | -15.26165 | 35144 ft | 429 kts | 213° |
| 2026-05-05 09:55 | 34.58477 | -15.29844 | 35145 ft | 429 kts | 213° |
| 2026-05-05 09:55 | 34.53332 | -15.33537 | 35144 ft | 429 kts | 213° |
| 2026-05-05 09:56 | 34.48179 | -15.37234 | 35143 ft | 430 kts | 213° |
| 2026-05-05 09:56 | 34.43041 | -15.40915 | 35142 ft | 430 kts | 213° |
| 2026-05-05 09:57 | 34.37863 | -15.44620 | 35140 ft | 430 kts | 213° |
| 2026-05-05 09:57 | 34.32713 | -15.48298 | 35139 ft | 430 kts | 213° |
| 2026-05-05 09:58 | 34.27554 | -15.51975 | 35137 ft | 431 kts | 213° |
| 2026-05-05 09:58 | 34.22420 | -15.55628 | 34875 ft | 423 kts | 213° |
| 2026-05-05 09:59 | 34.19877 | -15.57437 | 34450 ft | 424 kts | 213° |
| 2026-05-05 09:59 | 34.17370 | -15.59221 | 33774 ft | 424 kts | 213° |
| 2026-05-05 09:59 | 34.14812 | -15.61039 | 33042 ft | 425 kts | 212° |
| 2026-05-05 09:59 | 34.12263 | -15.62849 | 32501 ft | 420 kts | 212° |
| 2026-05-05 10:00 | 34.09747 | -15.64634 | 31966 ft | 417 kts | 212° |
| 2026-05-05 10:00 | 34.07274 | -15.66388 | 31422 ft | 413 kts | 211° |
| 2026-05-05 10:00 | 34.04819 | -15.68128 | 30876 ft | 410 kts | 211° |
| 2026-05-05 10:00 | 34.02349 | -15.69879 | 30318 ft | 410 kts | 211° |
| 2026-05-05 10:01 | 33.99924 | -15.71596 | 29767 ft | 407 kts | 211° |
| 2026-05-05 10:01 | 33.97483 | -15.73323 | 29227 ft | 403 kts | 211° |
| 2026-05-05 10:01 | 33.95092 | -15.75013 | 28682 ft | 401 kts | 211° |
| 2026-05-05 10:01 | 33.92696 | -15.76705 | 28146 ft | 398 kts | 212° |
| 2026-05-05 10:02 | 33.90300 | -15.78395 | 27603 ft | 395 kts | 212° |
| 2026-05-05 10:02 | 33.87957 | -15.80045 | 27068 ft | 392 kts | 212° |
| 2026-05-05 10:02 | 33.85588 | -15.81715 | 26528 ft | 390 kts | 212° |
| 2026-05-05 10:02 | 33.83269 | -15.83349 | 25994 ft | 388 kts | 212° |
| 2026-05-05 10:03 | 33.80945 | -15.84987 | 25417 ft | 387 kts | 212° |
| 2026-05-05 10:03 | 33.78606 | -15.86636 | 24498 ft | 394 kts | 213° |
| 2026-05-05 10:03 | 33.76208 | -15.88325 | 23556 ft | 402 kts | 213° |
| 2026-05-05 10:03 | 33.73805 | -15.90018 | 22615 ft | 409 kts | 213° |
| 2026-05-05 10:04 | 33.71335 | -15.91759 | 21615 ft | 416 kts | 212° |
| 2026-05-05 10:04 | 33.68833 | -15.93521 | 20722 ft | 420 kts | 212° |
| 2026-05-05 10:04 | 33.66297 | -15.95308 | 20040 ft | 418 kts | 213° |
| 2026-05-05 10:04 | 33.63862 | -15.97089 | 19430 ft | 415 kts | 214° |
| 2026-05-05 10:05 | 33.61433 | -15.98938 | 18829 ft | 411 kts | 214° |
| 2026-05-05 10:05 | 33.59032 | -16.00805 | 18219 ft | 408 kts | 215° |
| 2026-05-05 10:05 | 33.56665 | -16.02656 | 17609 ft | 405 kts | 214° |
| 2026-05-05 10:05 | 33.54331 | -16.04477 | 16958 ft | 403 kts | 214° |
| 2026-05-05 10:06 | 33.51995 | -16.06290 | 16349 ft | 401 kts | 214° |
| 2026-05-05 10:06 | 33.50958 | -16.07091 | 16075 ft | 400 kts | 213° |
| 2026-05-05 10:06 | 33.50247 | -16.07640 | 15893 ft | 399 kts | 213° |
| 2026-05-05 10:06 | 33.47939 | -16.09416 | 15439 ft | 382 kts | 213° |
| 2026-05-05 10:07 | 33.45812 | -16.11044 | 15402 ft | 352 kts | 213° |
| 2026-05-05 10:07 | 33.43809 | -16.12568 | 15206 ft | 331 kts | 214° |
| 2026-05-05 10:07 | 33.41898 | -16.14041 | 14338 ft | 333 kts | 213° |
| 2026-05-05 10:07 | 33.39936 | -16.15557 | 13407 ft | 336 kts | 213° |
| 2026-05-05 10:08 | 33.37992 | -16.17051 | 12510 ft | 337 kts | 213° |
| 2026-05-05 10:08 | 33.35994 | -16.18584 | 11712 ft | 344 kts | 213° |
| 2026-05-05 10:08 | 33.33965 | -16.20107 | 10969 ft | 349 kts | 212° |
| 2026-05-05 10:08 | 33.31915 | -16.21646 | 10673 ft | 339 kts | 212° |
| 2026-05-05 10:09 | 33.29971 | -16.23118 | 10426 ft | 328 kts | 212° |
| 2026-05-05 10:09 | 33.28075 | -16.24554 | 10235 ft | 317 kts | 212° |
| 2026-05-05 10:09 | 33.26908 | -16.25438 | 10116 ft | 310 kts | 212° |
| 2026-05-05 10:09 | 33.25107 | -16.26792 | 10095 ft | 294 kts | 211° |
| 2026-05-05 10:10 | 33.23415 | -16.28073 | 10093 ft | 283 kts | 212° |